sensor_id;sensor_type;location;lat;lon;timestamp;P1;durP1;ratioP1;P2;durP2;ratioP2
68178;SDS011;54998;42.656;23.382;2022-07-25T00:01:25;14.40;;;12.13;;
68178;SDS011;54998;42.656;23.382;2022-07-25T00:03:51;15.52;;;12.95;;
68178;SDS011;54998;42.656;23.382;2022-07-25T00:06:16;15.88;;;12.73;;
68178;SDS011;54998;42.656;23.382;2022-07-25T00:08:42;15.75;;;12.23;;
68178;SDS011;54998;42.656;23.382;2022-07-25T00:11:07;17.60;;;12.90;;
68178;SDS011;54998;42.656;23.382;2022-07-25T00:13:33;14.52;;;12.32;;
68178;SDS011;54998;42.656;23.382;2022-07-25T00:15:58;17.02;;;13.07;;
68178;SDS011;54998;42.656;23.382;2022-07-25T00:18:24;14.60;;;12.70;;
68178;SDS011;54998;42.656;23.382;2022-07-25T00:20:49;16.25;;;12.60;;
68178;SDS011;54998;42.656;23.382;2022-07-25T00:23:15;15.52;;;12.43;;
68178;SDS011;54998;42.656;23.382;2022-07-25T00:25:40;15.93;;;12.27;;
68178;SDS011;54998;42.656;23.382;2022-07-25T00:28:06;16.55;;;12.98;;
68178;SDS011;54998;42.656;23.382;2022-07-25T00:30:31;19.88;;;14.15;;
68178;SDS011;54998;42.656;23.382;2022-07-25T00:32:57;18.52;;;13.30;;
68178;SDS011;54998;42.656;23.382;2022-07-25T00:35:22;15.63;;;13.88;;
68178;SDS011;54998;42.656;23.382;2022-07-25T00:37:48;17.23;;;13.13;;
68178;SDS011;54998;42.656;23.382;2022-07-25T00:40:13;15.88;;;12.95;;
68178;SDS011;54998;42.656;23.382;2022-07-25T00:42:39;14.60;;;12.68;;
68178;SDS011;54998;42.656;23.382;2022-07-25T00:45:04;16.55;;;13.27;;
68178;SDS011;54998;42.656;23.382;2022-07-25T00:47:30;15.23;;;13.00;;
68178;SDS011;54998;42.656;23.382;2022-07-25T00:49:55;16.02;;;13.35;;
68178;SDS011;54998;42.656;23.382;2022-07-25T00:52:22;16.25;;;13.95;;
68178;SDS011;54998;42.656;23.382;2022-07-25T00:54:48;15.38;;;12.43;;
68178;SDS011;54998;42.656;23.382;2022-07-25T00:57:14;17.63;;;13.18;;
68178;SDS011;54998;42.656;23.382;2022-07-25T00:59:40;18.40;;;13.30;;
68178;SDS011;54998;42.656;23.382;2022-07-25T01:02:05;14.20;;;12.70;;
68178;SDS011;54998;42.656;23.382;2022-07-25T01:12:16;17.02;;;13.07;;
68178;SDS011;54998;42.656;23.382;2022-07-25T01:14:41;17.35;;;12.35;;
68178;SDS011;54998;42.656;23.382;2022-07-25T01:17:07;16.85;;;12.32;;
68178;SDS011;54998;42.656;23.382;2022-07-25T01:19:32;17.02;;;12.80;;
68178;SDS011;54998;42.656;23.382;2022-07-25T01:21:58;16.90;;;13.55;;
68178;SDS011;54998;42.656;23.382;2022-07-25T01:24:23;16.67;;;13.10;;
68178;SDS011;54998;42.656;23.382;2022-07-25T01:26:49;18.70;;;13.60;;
68178;SDS011;54998;42.656;23.382;2022-07-25T01:29:14;16.10;;;14.05;;
68178;SDS011;54998;42.656;23.382;2022-07-25T01:31:40;17.10;;;13.32;;
68178;SDS011;54998;42.656;23.382;2022-07-25T01:34:05;16.58;;;12.85;;
68178;SDS011;54998;42.656;23.382;2022-07-25T01:36:31;17.77;;;13.43;;
68178;SDS011;54998;42.656;23.382;2022-07-25T02:12:33;15.80;;;12.75;;
68178;SDS011;54998;42.656;23.382;2022-07-25T02:14:59;17.85;;;14.23;;
68178;SDS011;54998;42.656;23.382;2022-07-25T02:17:24;17.20;;;13.50;;
68178;SDS011;54998;42.656;23.382;2022-07-25T02:19:50;19.75;;;15.38;;
68178;SDS011;54998;42.656;23.382;2022-07-25T02:22:15;22.38;;;14.45;;
68178;SDS011;54998;42.656;23.382;2022-07-25T02:24:41;20.55;;;14.85;;
68178;SDS011;54998;42.656;23.382;2022-07-25T02:27:06;19.05;;;14.18;;
68178;SDS011;54998;42.656;23.382;2022-07-25T02:29:32;18.40;;;14.20;;
68178;SDS011;54998;42.656;23.382;2022-07-25T02:31:58;19.17;;;14.35;;
68178;SDS011;54998;42.656;23.382;2022-07-25T02:34:23;18.58;;;14.15;;
68178;SDS011;54998;42.656;23.382;2022-07-25T02:36:49;20.00;;;14.65;;
68178;SDS011;54998;42.656;23.382;2022-07-25T02:39:14;18.30;;;14.23;;
68178;SDS011;54998;42.656;23.382;2022-07-25T02:41:41;21.52;;;14.93;;
68178;SDS011;54998;42.656;23.382;2022-07-25T02:44:07;17.67;;;14.45;;
68178;SDS011;54998;42.656;23.382;2022-07-25T02:46:33;18.52;;;14.52;;
68178;SDS011;54998;42.656;23.382;2022-07-25T02:48:58;21.45;;;14.45;;
68178;SDS011;54998;42.656;23.382;2022-07-25T02:51:24;18.52;;;13.48;;
68178;SDS011;54998;42.656;23.382;2022-07-25T02:53:50;17.58;;;13.98;;
68178;SDS011;54998;42.656;23.382;2022-07-25T02:56:15;18.75;;;13.35;;
68178;SDS011;54998;42.656;23.382;2022-07-25T02:58:41;17.13;;;13.60;;
68178;SDS011;54998;42.656;23.382;2022-07-25T03:01:07;19.70;;;13.80;;
68178;SDS011;54998;42.656;23.382;2022-07-25T03:03:32;17.02;;;12.95;;
68178;SDS011;54998;42.656;23.382;2022-07-25T03:05:58;18.30;;;13.50;;
68178;SDS011;54998;42.656;23.382;2022-07-25T03:08:23;18.55;;;14.57;;
68178;SDS011;54998;42.656;23.382;2022-07-25T03:10:52;17.73;;;13.25;;
68178;SDS011;54998;42.656;23.382;2022-07-25T03:13:17;17.70;;;13.20;;
68178;SDS011;54998;42.656;23.382;2022-07-25T03:15:43;19.48;;;13.63;;
68178;SDS011;54998;42.656;23.382;2022-07-25T03:18:08;18.60;;;12.75;;
68178;SDS011;54998;42.656;23.382;2022-07-25T03:20:34;20.42;;;14.02;;
68178;SDS011;54998;42.656;23.382;2022-07-25T03:22:59;19.10;;;13.70;;
68178;SDS011;54998;42.656;23.382;2022-07-25T03:25:25;17.88;;;13.63;;
68178;SDS011;54998;42.656;23.382;2022-07-25T03:27:50;20.80;;;14.30;;
68178;SDS011;54998;42.656;23.382;2022-07-25T03:30:16;20.17;;;14.80;;
68178;SDS011;54998;42.656;23.382;2022-07-25T03:32:41;19.02;;;14.35;;
68178;SDS011;54998;42.656;23.382;2022-07-25T03:35:06;19.58;;;14.63;;
68178;SDS011;54998;42.656;23.382;2022-07-25T03:37:32;20.13;;;14.88;;
68178;SDS011;54998;42.656;23.382;2022-07-25T03:39:58;20.02;;;14.95;;
68178;SDS011;54998;42.656;23.382;2022-07-25T04:11:29;13.63;;;9.52;;
68178;SDS011;54998;42.656;23.382;2022-07-25T04:13:55;12.75;;;9.70;;
68178;SDS011;54998;42.656;23.382;2022-07-25T04:16:21;15.68;;;8.98;;
68178;SDS011;54998;42.656;23.382;2022-07-25T04:18:47;15.40;;;9.63;;
68178;SDS011;54998;42.656;23.382;2022-07-25T04:21:12;14.38;;;9.05;;
68178;SDS011;54998;42.656;23.382;2022-07-25T04:23:38;13.50;;;9.27;;
68178;SDS011;54998;42.656;23.382;2022-07-25T04:26:03;10.52;;;9.15;;
68178;SDS011;54998;42.656;23.382;2022-07-25T04:28:29;11.43;;;8.95;;
68178;SDS011;54998;42.656;23.382;2022-07-25T04:30:55;12.88;;;9.10;;
68178;SDS011;54998;42.656;23.382;2022-07-25T04:33:20;13.38;;;9.45;;
68178;SDS011;54998;42.656;23.382;2022-07-25T04:35:46;11.75;;;9.27;;
68178;SDS011;54998;42.656;23.382;2022-07-25T04:38:12;12.65;;;9.45;;
68178;SDS011;54998;42.656;23.382;2022-07-25T04:40:37;12.50;;;8.80;;
68178;SDS011;54998;42.656;23.382;2022-07-25T04:43:03;11.90;;;8.45;;
68178;SDS011;54998;42.656;23.382;2022-07-25T04:45:29;12.38;;;8.70;;
68178;SDS011;54998;42.656;23.382;2022-07-25T04:47:55;11.90;;;8.65;;
68178;SDS011;54998;42.656;23.382;2022-07-25T04:50:21;10.45;;;8.35;;
68178;SDS011;54998;42.656;23.382;2022-07-25T04:52:46;12.60;;;8.82;;
68178;SDS011;54998;42.656;23.382;2022-07-25T04:55:12;13.00;;;8.40;;
68178;SDS011;54998;42.656;23.382;2022-07-25T04:57:37;14.13;;;10.82;;
68178;SDS011;54998;42.656;23.382;2022-07-25T05:00:04;11.10;;;7.72;;
68178;SDS011;54998;42.656;23.382;2022-07-25T05:02:32;10.60;;;8.00;;
68178;SDS011;54998;42.656;23.382;2022-07-25T05:04:58;12.60;;;8.60;;
68178;SDS011;54998;42.656;23.382;2022-07-25T05:07:24;10.70;;;7.88;;
68178;SDS011;54998;42.656;23.382;2022-07-25T05:09:49;11.57;;;8.23;;
68178;SDS011;54998;42.656;23.382;2022-07-25T05:12:15;10.18;;;8.20;;
68178;SDS011;54998;42.656;23.382;2022-07-25T05:14:40;13.73;;;8.68;;
68178;SDS011;54998;42.656;23.382;2022-07-25T05:17:05;12.50;;;8.07;;
68178;SDS011;54998;42.656;23.382;2022-07-25T05:19:31;15.32;;;7.97;;
68178;SDS011;54998;42.656;23.382;2022-07-25T05:21:57;10.65;;;7.82;;
68178;SDS011;54998;42.656;23.382;2022-07-25T05:24:22;9.27;;;7.22;;
68178;SDS011;54998;42.656;23.382;2022-07-25T05:26:48;9.48;;;7.57;;
68178;SDS011;54998;42.656;23.382;2022-07-25T05:31:39;10.73;;;7.22;;
68178;SDS011;54998;42.656;23.382;2022-07-25T05:34:05;9.50;;;6.68;;
68178;SDS011;54998;42.656;23.382;2022-07-25T05:36:33;9.65;;;7.53;;
68178;SDS011;54998;42.656;23.382;2022-07-25T05:38:58;10.93;;;7.20;;
68178;SDS011;54998;42.656;23.382;2022-07-25T05:41:24;10.15;;;7.30;;
68178;SDS011;54998;42.656;23.382;2022-07-25T05:43:50;10.07;;;7.28;;
68178;SDS011;54998;42.656;23.382;2022-07-25T05:48:42;8.98;;;7.53;;
68178;SDS011;54998;42.656;23.382;2022-07-25T05:51:07;9.60;;;8.02;;
68178;SDS011;54998;42.656;23.382;2022-07-25T05:53:33;9.30;;;7.75;;
68178;SDS011;54998;42.656;23.382;2022-07-25T05:58:25;8.85;;;7.95;;
68178;SDS011;54998;42.656;23.382;2022-07-25T06:03:17;8.20;;;7.13;;
68178;SDS011;54998;42.656;23.382;2022-07-25T06:05:43;9.25;;;7.60;;
68178;SDS011;54998;42.656;23.382;2022-07-25T06:08:09;11.77;;;8.25;;
68178;SDS011;54998;42.656;23.382;2022-07-25T06:13:00;10.07;;;8.05;;
68178;SDS011;54998;42.656;23.382;2022-07-25T06:17:51;14.23;;;8.63;;
68178;SDS011;54998;42.656;23.382;2022-07-25T06:22:41;17.52;;;8.65;;
68178;SDS011;54998;42.656;23.382;2022-07-25T06:25:07;10.55;;;7.97;;
68178;SDS011;54998;42.656;23.382;2022-07-25T06:29:59;10.10;;;7.82;;
68178;SDS011;54998;42.656;23.382;2022-07-25T06:32:26;9.48;;;8.27;;
68178;SDS011;54998;42.656;23.382;2022-07-25T06:34:51;10.68;;;8.07;;
68178;SDS011;54998;42.656;23.382;2022-07-25T06:37:17;8.80;;;7.90;;
68178;SDS011;54998;42.656;23.382;2022-07-25T06:39:42;10.23;;;9.13;;
68178;SDS011;54998;42.656;23.382;2022-07-25T06:42:08;10.02;;;7.57;;
68178;SDS011;54998;42.656;23.382;2022-07-25T06:44:33;10.57;;;8.20;;
68178;SDS011;54998;42.656;23.382;2022-07-25T06:46:59;10.55;;;8.18;;
68178;SDS011;54998;42.656;23.382;2022-07-25T06:49:25;10.45;;;8.27;;
68178;SDS011;54998;42.656;23.382;2022-07-25T06:51:51;9.05;;;8.05;;
68178;SDS011;54998;42.656;23.382;2022-07-25T06:54:16;9.50;;;7.78;;
68178;SDS011;54998;42.656;23.382;2022-07-25T06:56:43;8.40;;;7.43;;
68178;SDS011;54998;42.656;23.382;2022-07-25T06:59:08;9.52;;;8.63;;
68178;SDS011;54998;42.656;23.382;2022-07-25T07:01:34;9.85;;;8.18;;
68178;SDS011;54998;42.656;23.382;2022-07-25T07:04:00;8.15;;;7.40;;
68178;SDS011;54998;42.656;23.382;2022-07-25T07:06:26;9.48;;;8.57;;
68178;SDS011;54998;42.656;23.382;2022-07-25T07:08:51;9.82;;;8.93;;
68178;SDS011;54998;42.656;23.382;2022-07-25T07:11:17;8.23;;;7.43;;
68178;SDS011;54998;42.656;23.382;2022-07-25T07:13:43;8.73;;;7.78;;
68178;SDS011;54998;42.656;23.382;2022-07-25T07:16:08;11.20;;;9.25;;
68178;SDS011;54998;42.656;23.382;2022-07-25T07:18:34;13.75;;;8.77;;
68178;SDS011;54998;42.656;23.382;2022-07-25T07:21:01;9.77;;;8.80;;
68178;SDS011;54998;42.656;23.382;2022-07-25T07:23:27;10.27;;;7.75;;
68178;SDS011;54998;42.656;23.382;2022-07-25T07:25:52;10.98;;;8.68;;
68178;SDS011;54998;42.656;23.382;2022-07-25T07:28:18;9.27;;;8.38;;
68178;SDS011;54998;42.656;23.382;2022-07-25T07:30:44;10.10;;;8.35;;
68178;SDS011;54998;42.656;23.382;2022-07-25T07:33:10;9.88;;;8.73;;
68178;SDS011;54998;42.656;23.382;2022-07-25T07:35:35;11.18;;;8.57;;
68178;SDS011;54998;42.656;23.382;2022-07-25T07:38:01;9.75;;;8.75;;
68178;SDS011;54998;42.656;23.382;2022-07-25T07:40:26;10.23;;;8.52;;
68178;SDS011;54998;42.656;23.382;2022-07-25T07:42:52;8.48;;;7.68;;
68178;SDS011;54998;42.656;23.382;2022-07-25T07:45:19;10.15;;;9.15;;
68178;SDS011;54998;42.656;23.382;2022-07-25T07:47:48;9.70;;;8.48;;
68178;SDS011;54998;42.656;23.382;2022-07-25T07:50:15;10.38;;;9.27;;
68178;SDS011;54998;42.656;23.382;2022-07-25T07:52:42;9.75;;;8.70;;
68178;SDS011;54998;42.656;23.382;2022-07-25T07:55:08;9.63;;;8.70;;
68178;SDS011;54998;42.656;23.382;2022-07-25T08:00:17;10.00;;;8.95;;
68178;SDS011;54998;42.656;23.382;2022-07-25T08:02:48;11.65;;;8.48;;
68178;SDS011;54998;42.656;23.382;2022-07-25T08:05:18;9.68;;;8.68;;
68178;SDS011;54998;42.656;23.382;2022-07-25T08:07:48;10.93;;;9.77;;
68178;SDS011;54998;42.656;23.382;2022-07-25T08:10:17;10.90;;;8.65;;
68178;SDS011;54998;42.656;23.382;2022-07-25T08:12:43;9.13;;;8.20;;
68178;SDS011;54998;42.656;23.382;2022-07-25T08:15:09;9.73;;;8.82;;
68178;SDS011;54998;42.656;23.382;2022-07-25T08:17:35;9.30;;;8.40;;
68178;SDS011;54998;42.656;23.382;2022-07-25T08:20:01;10.45;;;8.77;;
68178;SDS011;54998;42.656;23.382;2022-07-25T08:22:35;9.68;;;8.70;;
68178;SDS011;54998;42.656;23.382;2022-07-25T08:25:05;9.90;;;8.90;;
68178;SDS011;54998;42.656;23.382;2022-07-25T08:27:32;8.80;;;7.88;;
68178;SDS011;54998;42.656;23.382;2022-07-25T08:29:57;10.00;;;8.90;;
68178;SDS011;54998;42.656;23.382;2022-07-25T08:32:25;9.63;;;8.65;;
68178;SDS011;54998;42.656;23.382;2022-07-25T08:34:52;10.60;;;9.60;;
68178;SDS011;54998;42.656;23.382;2022-07-25T08:37:18;9.68;;;8.73;;
68178;SDS011;54998;42.656;23.382;2022-07-25T08:39:44;10.35;;;8.98;;
68178;SDS011;54998;42.656;23.382;2022-07-25T08:42:09;9.73;;;8.73;;
68178;SDS011;54998;42.656;23.382;2022-07-25T08:44:35;10.65;;;9.55;;
68178;SDS011;54998;42.656;23.382;2022-07-25T08:47:04;10.35;;;8.65;;
68178;SDS011;54998;42.656;23.382;2022-07-25T08:49:31;10.68;;;9.25;;
68178;SDS011;54998;42.656;23.382;2022-07-25T08:51:59;9.93;;;8.93;;
68178;SDS011;54998;42.656;23.382;2022-07-25T08:54:26;10.32;;;9.27;;
68178;SDS011;54998;42.656;23.382;2022-07-25T08:56:53;12.70;;;10.13;;
68178;SDS011;54998;42.656;23.382;2022-07-25T08:59:18;10.98;;;9.13;;
68178;SDS011;54998;42.656;23.382;2022-07-25T09:01:43;9.85;;;8.00;;
68178;SDS011;54998;42.656;23.382;2022-07-25T09:04:09;10.80;;;9.07;;
68178;SDS011;54998;42.656;23.382;2022-07-25T09:06:35;11.43;;;9.18;;
68178;SDS011;54998;42.656;23.382;2022-07-25T09:09:01;10.18;;;9.02;;
68178;SDS011;54998;42.656;23.382;2022-07-25T09:11:36;9.38;;;8.48;;
68178;SDS011;54998;42.656;23.382;2022-07-25T09:14:03;9.90;;;8.90;;
68178;SDS011;54998;42.656;23.382;2022-07-25T09:16:32;10.25;;;8.20;;
68178;SDS011;54998;42.656;23.382;2022-07-25T09:21:35;11.02;;;8.95;;
68178;SDS011;54998;42.656;23.382;2022-07-25T09:24:34;10.90;;;8.57;;
68178;SDS011;54998;42.656;23.382;2022-07-25T09:26:54;10.50;;;8.88;;
68178;SDS011;54998;42.656;23.382;2022-07-25T09:29:29;10.23;;;9.13;;
68178;SDS011;54998;42.656;23.382;2022-07-25T09:31:56;9.48;;;8.57;;
68178;SDS011;54998;42.656;23.382;2022-07-25T09:34:36;9.95;;;9.05;;
68178;SDS011;54998;42.656;23.382;2022-07-25T09:37:07;9.90;;;8.82;;
68178;SDS011;54998;42.656;23.382;2022-07-25T09:39:43;8.70;;;7.75;;
68178;SDS011;54998;42.656;23.382;2022-07-25T09:42:23;10.65;;;8.35;;
68178;SDS011;54998;42.656;23.382;2022-07-25T09:45:04;10.57;;;8.50;;
68178;SDS011;54998;42.656;23.382;2022-07-25T09:47:36;9.15;;;8.25;;
68178;SDS011;54998;42.656;23.382;2022-07-25T09:50:14;10.43;;;8.65;;
68178;SDS011;54998;42.656;23.382;2022-07-25T09:52:40;10.02;;;8.80;;
68178;SDS011;54998;42.656;23.382;2022-07-25T09:55:06;9.57;;;8.15;;
68178;SDS011;54998;42.656;23.382;2022-07-25T09:57:34;10.55;;;8.90;;
68178;SDS011;54998;42.656;23.382;2022-07-25T09:59:59;9.25;;;8.27;;
68178;SDS011;54998;42.656;23.382;2022-07-25T10:02:36;9.25;;;8.35;;
68178;SDS011;54998;42.656;23.382;2022-07-25T10:07:48;8.05;;;7.25;;
68178;SDS011;54998;42.656;23.382;2022-07-25T10:10:21;9.82;;;8.18;;
68178;SDS011;54998;42.656;23.382;2022-07-25T10:15:38;8.23;;;7.43;;
68178;SDS011;54998;42.656;23.382;2022-07-25T10:18:15;8.50;;;7.70;;
68178;SDS011;54998;42.656;23.382;2022-07-25T10:20:43;9.80;;;7.72;;
68178;SDS011;54998;42.656;23.382;2022-07-25T10:23:19;9.20;;;7.85;;
68178;SDS011;54998;42.656;23.382;2022-07-25T10:25:46;8.73;;;7.25;;
68178;SDS011;54998;42.656;23.382;2022-07-25T10:28:22;8.43;;;7.63;;
68178;SDS011;54998;42.656;23.382;2022-07-25T10:31:16;8.48;;;7.68;;
68178;SDS011;54998;42.656;23.382;2022-07-25T10:33:47;8.50;;;7.70;;
68178;SDS011;54998;42.656;23.382;2022-07-25T10:36:14;8.45;;;7.55;;
68178;SDS011;54998;42.656;23.382;2022-07-25T10:38:40;9.63;;;7.95;;
68178;SDS011;54998;42.656;23.382;2022-07-25T10:41:10;8.68;;;7.78;;
68178;SDS011;54998;42.656;23.382;2022-07-25T10:43:37;9.70;;;8.68;;
68178;SDS011;54998;42.656;23.382;2022-07-25T10:46:13;9.77;;;8.55;;
68178;SDS011;54998;42.656;23.382;2022-07-25T10:48:42;8.88;;;8.07;;
68178;SDS011;54998;42.656;23.382;2022-07-25T10:51:10;7.72;;;6.97;;
68178;SDS011;54998;42.656;23.382;2022-07-25T10:53:37;8.50;;;6.93;;
68178;SDS011;54998;42.656;23.382;2022-07-25T10:56:07;9.75;;;7.63;;
68178;SDS011;54998;42.656;23.382;2022-07-25T10:58:41;9.25;;;7.65;;
68178;SDS011;54998;42.656;23.382;2022-07-25T11:01:22;8.77;;;7.70;;
68178;SDS011;54998;42.656;23.382;2022-07-25T11:03:52;9.05;;;7.85;;
68178;SDS011;54998;42.656;23.382;2022-07-25T11:08:53;8.00;;;7.13;;
68178;SDS011;54998;42.656;23.382;2022-07-25T11:11:21;7.55;;;6.82;;
68178;SDS011;54998;42.656;23.382;2022-07-25T11:13:59;8.30;;;7.50;;
68178;SDS011;54998;42.656;23.382;2022-07-25T11:16:25;7.35;;;6.28;;
68178;SDS011;54998;42.656;23.382;2022-07-25T11:18:51;8.18;;;7.07;;
68178;SDS011;54998;42.656;23.382;2022-07-25T11:21:18;6.28;;;5.68;;
68178;SDS011;54998;42.656;23.382;2022-07-25T11:23:48;8.32;;;6.45;;
68178;SDS011;54998;42.656;23.382;2022-07-25T11:26:14;6.47;;;5.88;;
68178;SDS011;54998;42.656;23.382;2022-07-25T11:28:41;7.95;;;6.68;;
68178;SDS011;54998;42.656;23.382;2022-07-25T11:31:16;8.00;;;7.13;;
68178;SDS011;54998;42.656;23.382;2022-07-25T11:33:46;9.02;;;7.00;;
68178;SDS011;54998;42.656;23.382;2022-07-25T11:36:13;9.25;;;7.63;;
68178;SDS011;54998;42.656;23.382;2022-07-25T11:38:39;7.82;;;6.53;;
68178;SDS011;54998;42.656;23.382;2022-07-25T11:41:06;8.82;;;7.57;;
68178;SDS011;54998;42.656;23.382;2022-07-25T11:43:32;7.25;;;6.55;;
68178;SDS011;54998;42.656;23.382;2022-07-25T11:46:06;6.95;;;6.30;;
68178;SDS011;54998;42.656;23.382;2022-07-25T11:48:35;8.02;;;7.22;;
68178;SDS011;54998;42.656;23.382;2022-07-25T11:51:13;7.70;;;6.72;;
68178;SDS011;54998;42.656;23.382;2022-07-25T11:53:48;7.35;;;6.55;;
68178;SDS011;54998;42.656;23.382;2022-07-25T11:56:18;7.72;;;6.85;;
68178;SDS011;54998;42.656;23.382;2022-07-25T11:58:58;7.45;;;6.35;;
68178;SDS011;54998;42.656;23.382;2022-07-25T12:01:25;7.53;;;6.82;;
68178;SDS011;54998;42.656;23.382;2022-07-25T12:04:15;7.30;;;6.45;;
68178;SDS011;54998;42.656;23.382;2022-07-25T12:06:45;9.82;;;7.22;;
68178;SDS011;54998;42.656;23.382;2022-07-25T12:09:19;9.27;;;6.95;;
68178;SDS011;54998;42.656;23.382;2022-07-25T12:11:46;7.68;;;6.60;;
68178;SDS011;54998;42.656;23.382;2022-07-25T12:14:13;7.75;;;6.47;;
68178;SDS011;54998;42.656;23.382;2022-07-25T12:16:39;7.88;;;7.00;;
68178;SDS011;54998;42.656;23.382;2022-07-25T12:19:08;7.75;;;6.95;;
68178;SDS011;54998;42.656;23.382;2022-07-25T12:21:43;7.97;;;6.72;;
68178;SDS011;54998;42.656;23.382;2022-07-25T12:24:08;7.60;;;6.90;;
68178;SDS011;54998;42.656;23.382;2022-07-25T12:28:59;7.55;;;6.65;;
68178;SDS011;54998;42.656;23.382;2022-07-25T12:33:52;9.02;;;6.80;;
68178;SDS011;54998;42.656;23.382;2022-07-25T12:36:18;8.60;;;6.68;;
68178;SDS011;54998;42.656;23.382;2022-07-25T12:41:09;9.68;;;7.47;;
68178;SDS011;54998;42.656;23.382;2022-07-25T13:24:40;7.07;;;6.38;;
68178;SDS011;54998;42.656;23.382;2022-07-25T13:29:32;7.90;;;5.78;;
68178;SDS011;54998;42.656;23.382;2022-07-25T13:31:57;8.18;;;6.97;;
68178;SDS011;54998;42.656;23.382;2022-07-25T13:36:48;7.72;;;6.10;;
68178;SDS011;54998;42.656;23.382;2022-07-25T13:41:39;8.63;;;6.50;;
68178;SDS011;54998;42.656;23.382;2022-07-25T13:46:30;7.20;;;6.43;;
68178;SDS011;54998;42.656;23.382;2022-07-25T13:48:56;6.95;;;6.25;;
68178;SDS011;54998;42.656;23.382;2022-07-25T13:53:47;8.25;;;6.05;;
68178;SDS011;54998;42.656;23.382;2022-07-25T13:56:12;6.93;;;6.20;;
68178;SDS011;54998;42.656;23.382;2022-07-25T13:58:38;7.47;;;6.22;;
68178;SDS011;54998;42.656;23.382;2022-07-25T14:01:07;6.88;;;6.13;;
68178;SDS011;54998;42.656;23.382;2022-07-25T14:03:33;8.05;;;6.65;;
68178;SDS011;54998;42.656;23.382;2022-07-25T14:06:01;8.73;;;7.22;;
68178;SDS011;54998;42.656;23.382;2022-07-25T14:08:27;7.65;;;6.93;;
68178;SDS011;54998;42.656;23.382;2022-07-25T14:13:18;8.07;;;6.93;;
68178;SDS011;54998;42.656;23.382;2022-07-25T14:18:09;8.68;;;7.28;;
68178;SDS011;54998;42.656;23.382;2022-07-25T14:23:00;7.47;;;6.65;;
68178;SDS011;54998;42.656;23.382;2022-07-25T14:27:51;8.32;;;7.45;;
68178;SDS011;54998;42.656;23.382;2022-07-25T14:32:42;7.90;;;6.78;;
68178;SDS011;54998;42.656;23.382;2022-07-25T14:35:07;11.75;;;7.80;;
68178;SDS011;54998;42.656;23.382;2022-07-25T14:37:34;9.52;;;7.57;;
68178;SDS011;54998;42.656;23.382;2022-07-25T14:42:26;9.57;;;8.00;;
68178;SDS011;54998;42.656;23.382;2022-07-25T14:47:17;8.75;;;7.72;;
68178;SDS011;54998;42.656;23.382;2022-07-25T14:52:09;10.20;;;7.95;;
68178;SDS011;54998;42.656;23.382;2022-07-25T14:54:36;9.60;;;8.23;;
68178;SDS011;54998;42.656;23.382;2022-07-25T14:57:02;13.57;;;8.10;;
68178;SDS011;54998;42.656;23.382;2022-07-25T15:01:53;8.38;;;7.47;;
68178;SDS011;54998;42.656;23.382;2022-07-25T15:06:46;9.95;;;8.30;;
68178;SDS011;54998;42.656;23.382;2022-07-25T15:09:12;9.18;;;7.95;;
68178;SDS011;54998;42.656;23.382;2022-07-25T15:14:03;9.52;;;8.32;;
68178;SDS011;54998;42.656;23.382;2022-07-25T15:16:28;10.95;;;7.43;;
68178;SDS011;54998;42.656;23.382;2022-07-25T15:18:54;10.23;;;8.07;;
68178;SDS011;54998;42.656;23.382;2022-07-25T15:21:21;12.20;;;8.95;;
68178;SDS011;54998;42.656;23.382;2022-07-25T15:23:47;10.38;;;7.53;;
68178;SDS011;54998;42.656;23.382;2022-07-25T15:26:13;9.07;;;8.05;;
68178;SDS011;54998;42.656;23.382;2022-07-25T15:28:38;9.38;;;7.93;;
68178;SDS011;54998;42.656;23.382;2022-07-25T15:31:04;11.02;;;8.40;;
68178;SDS011;54998;42.656;23.382;2022-07-25T15:33:30;10.43;;;8.23;;
68178;SDS011;54998;42.656;23.382;2022-07-25T15:35:55;9.48;;;7.75;;
68178;SDS011;54998;42.656;23.382;2022-07-25T15:38:21;8.35;;;7.47;;
68178;SDS011;54998;42.656;23.382;2022-07-25T15:43:12;9.73;;;8.25;;
68178;SDS011;54998;42.656;23.382;2022-07-25T15:45:39;10.52;;;8.55;;
68178;SDS011;54998;42.656;23.382;2022-07-25T15:48:06;11.13;;;8.30;;
68178;SDS011;54998;42.656;23.382;2022-07-25T15:50:36;9.48;;;8.20;;
68178;SDS011;54998;42.656;23.382;2022-07-25T15:53:05;9.52;;;7.95;;
68178;SDS011;54998;42.656;23.382;2022-07-25T15:55:32;11.43;;;8.55;;
68178;SDS011;54998;42.656;23.382;2022-07-25T15:57:58;10.70;;;8.20;;
68178;SDS011;54998;42.656;23.382;2022-07-25T16:00:24;9.70;;;8.07;;
68178;SDS011;54998;42.656;23.382;2022-07-25T16:02:49;12.07;;;9.98;;
68178;SDS011;54998;42.656;23.382;2022-07-25T16:05:15;9.85;;;8.07;;
68178;SDS011;54998;42.656;23.382;2022-07-25T16:07:41;9.48;;;8.15;;
68178;SDS011;54998;42.656;23.382;2022-07-25T16:10:07;9.20;;;8.20;;
68178;SDS011;54998;42.656;23.382;2022-07-25T16:12:32;9.98;;;8.57;;
68178;SDS011;54998;42.656;23.382;2022-07-25T16:14:58;9.20;;;7.95;;
68178;SDS011;54998;42.656;23.382;2022-07-25T16:17:24;10.10;;;8.40;;
68178;SDS011;54998;42.656;23.382;2022-07-25T16:19:52;10.68;;;7.68;;
68178;SDS011;54998;42.656;23.382;2022-07-25T16:22:20;8.60;;;7.70;;
68178;SDS011;54998;42.656;23.382;2022-07-25T16:24:46;9.07;;;8.07;;
68178;SDS011;54998;42.656;23.382;2022-07-25T16:27:11;9.65;;;8.65;;
68178;SDS011;54998;42.656;23.382;2022-07-25T16:29:37;10.55;;;8.55;;
68178;SDS011;54998;42.656;23.382;2022-07-25T16:32:04;10.35;;;8.20;;
68178;SDS011;54998;42.656;23.382;2022-07-25T16:34:30;9.35;;;8.38;;
68178;SDS011;54998;42.656;23.382;2022-07-25T16:36:55;9.75;;;8.02;;
68178;SDS011;54998;42.656;23.382;2022-07-25T16:39:21;9.70;;;8.65;;
68178;SDS011;54998;42.656;23.382;2022-07-25T16:41:47;12.82;;;8.88;;
68178;SDS011;54998;42.656;23.382;2022-07-25T16:44:12;12.43;;;8.82;;
68178;SDS011;54998;42.656;23.382;2022-07-25T16:46:38;9.60;;;8.60;;
68178;SDS011;54998;42.656;23.382;2022-07-25T16:49:03;12.80;;;8.85;;
68178;SDS011;54998;42.656;23.382;2022-07-25T16:51:29;11.52;;;8.80;;
68178;SDS011;54998;42.656;23.382;2022-07-25T16:53:54;10.52;;;9.43;;
68178;SDS011;54998;42.656;23.382;2022-07-25T17:11:50;10.80;;;9.02;;
68178;SDS011;54998;42.656;23.382;2022-07-25T17:14:16;10.98;;;8.98;;
68178;SDS011;54998;42.656;23.382;2022-07-25T17:16:41;13.43;;;9.40;;
68178;SDS011;54998;42.656;23.382;2022-07-25T17:19:08;11.52;;;9.35;;
68178;SDS011;54998;42.656;23.382;2022-07-25T17:21:34;9.45;;;8.48;;
68178;SDS011;54998;42.656;23.382;2022-07-25T17:23:59;12.80;;;9.27;;
68178;SDS011;54998;42.656;23.382;2022-07-25T17:26:25;11.93;;;9.45;;
68178;SDS011;54998;42.656;23.382;2022-07-25T17:28:51;11.15;;;9.95;;
68178;SDS011;54998;42.656;23.382;2022-07-25T17:31:17;10.02;;;8.90;;
68178;SDS011;54998;42.656;23.382;2022-07-25T17:33:43;11.98;;;9.95;;
68178;SDS011;54998;42.656;23.382;2022-07-25T17:36:09;11.35;;;8.70;;
68178;SDS011;54998;42.656;23.382;2022-07-25T17:38:35;13.55;;;9.57;;
68178;SDS011;54998;42.656;23.382;2022-07-25T17:41:01;13.13;;;9.73;;
68178;SDS011;54998;42.656;23.382;2022-07-25T17:43:27;15.02;;;10.20;;
68178;SDS011;54998;42.656;23.382;2022-07-25T17:45:53;12.15;;;9.80;;
68178;SDS011;54998;42.656;23.382;2022-07-25T17:48:19;16.92;;;10.77;;
68178;SDS011;54998;42.656;23.382;2022-07-25T17:50:44;12.88;;;10.05;;